createdAt,value
2019-05-16T00:01:34.582Z,18.40
2019-05-16T00:04:04.598Z,21.93
2019-05-16T00:06:35.639Z,26.75
2019-05-16T00:09:07.997Z,21.45
2019-05-16T00:11:38.542Z,19.42
2019-05-16T00:14:08.663Z,20.55
2019-05-16T00:16:38.699Z,18.25
2019-05-16T00:19:09.082Z,18.25
2019-05-16T00:21:39.226Z,15.60
2019-05-16T00:24:09.139Z,18.92
2019-05-16T00:26:39.091Z,18.87
2019-05-16T00:29:10.101Z,18.15
2019-05-16T00:31:40.115Z,18.60
2019-05-16T00:34:10.540Z,12.43
2019-05-16T00:36:40.454Z,13.78
2019-05-16T00:39:10.578Z,13.53
2019-05-16T00:41:40.490Z,15.98
2019-05-16T00:44:10.507Z,14.33
2019-05-16T00:46:40.422Z,14.03
2019-05-16T00:49:13.308Z,15.15
2019-05-16T00:51:43.221Z,14.93
2019-05-16T00:54:13.230Z,15.10
2019-05-16T00:56:43.098Z,15.20
2019-05-16T00:59:13.067Z,14.53
2019-05-16T01:01:42.983Z,13.90
2019-05-16T01:04:12.890Z,11.70
2019-05-16T01:06:43.120Z,14.50
2019-05-16T01:09:13.035Z,14.18
2019-05-16T01:11:42.949Z,13.95
2019-05-16T01:14:12.967Z,13.50
2019-05-16T01:16:42.881Z,13.68
2019-05-16T01:19:13.922Z,11.88
2019-05-16T01:21:44.963Z,13.65
2019-05-16T01:24:15.392Z,11.78
2019-05-16T01:26:45.232Z,15.88
2019-05-16T01:29:15.093Z,13.98
2019-05-16T01:31:45.446Z,12.88
2019-05-16T01:34:15.358Z,13.78
2019-05-16T01:36:45.263Z,10.53
2019-05-16T01:39:18.567Z,11.68
2019-05-16T01:41:48.482Z,10.85
2019-05-16T01:44:18.483Z,13.85
2019-05-16T01:46:48.517Z,8.53
2019-05-16T01:49:18.882Z,9.15
2019-05-16T01:51:49.371Z,8.25
2019-05-16T01:54:19.386Z,9.38
2019-05-16T01:56:49.711Z,6.92
2019-05-16T01:59:19.626Z,7.20
2019-05-16T02:01:49.644Z,6.83
2019-05-16T02:04:19.660Z,6.78
2019-05-16T02:06:54.463Z,8.00
2019-05-16T02:09:21.116Z,7.78
2019-05-16T02:11:51.146Z,9.68
2019-05-16T02:14:21.068Z,11.60
2019-05-16T02:16:51.077Z,12.18
2019-05-16T02:19:21.402Z,12.13
2019-05-16T02:21:51.317Z,11.60
2019-05-16T02:24:21.232Z,12.85
2019-05-16T02:26:52.407Z,13.30
2019-05-16T02:29:22.598Z,13.53
2019-05-16T02:31:52.451Z,12.15
2019-05-16T02:34:22.637Z,14.07
2019-05-16T02:37:10.301Z,15.55
2019-05-16T02:39:24.099Z,13.80
2019-05-16T02:41:54.019Z,12.63
2019-05-16T02:44:24.625Z,11.53
2019-05-16T02:46:55.076Z,10.18
2019-05-16T02:49:24.927Z,9.25
2019-05-16T02:51:54.801Z,9.35
2019-05-16T02:54:24.716Z,9.38
2019-05-16T02:56:54.633Z,6.90
2019-05-16T02:59:24.547Z,8.35
2019-05-16T03:01:54.460Z,9.03
2019-05-16T03:04:24.791Z,8.85
2019-05-16T03:07:07.485Z,7.97
2019-05-16T03:09:37.313Z,9.33
2019-05-16T03:12:10.557Z,10.63
2019-05-16T03:14:41.683Z,8.78
2019-05-16T03:17:21.176Z,7.05
2019-05-16T03:19:51.065Z,10.85
2019-05-16T03:22:22.027Z,8.38
2019-05-16T03:24:52.164Z,6.58
2019-05-16T03:27:22.076Z,7.97
2019-05-16T03:29:51.992Z,15.88
2019-05-16T03:32:24.175Z,8.50
2019-05-16T03:34:55.129Z,10.38
2019-05-16T03:37:25.534Z,9.05
2019-05-16T03:39:55.440Z,10.23
2019-05-16T03:42:25.458Z,11.15
2019-05-16T03:44:55.375Z,11.22
2019-05-16T03:47:25.288Z,11.53
2019-05-16T03:49:55.203Z,11.33
2019-05-16T03:52:25.156Z,12.47
2019-05-16T03:54:55.237Z,10.28
2019-05-16T03:57:25.256Z,9.88
2019-05-16T03:59:55.168Z,9.60
2019-05-16T04:02:25.083Z,9.93
2019-05-16T04:04:55.104Z,11.18
2019-05-16T04:07:25.021Z,10.53
2019-05-16T04:09:55.045Z,10.55
2019-05-16T04:12:25.035Z,8.23
2019-05-16T04:14:54.965Z,9.73
2019-05-16T04:17:24.880Z,11.83
2019-05-16T04:19:54.796Z,14.10
2019-05-16T04:22:24.703Z,9.60
2019-05-16T04:24:55.509Z,11.00
2019-05-16T04:27:25.462Z,9.28
2019-05-16T04:29:55.684Z,8.45
2019-05-16T04:32:25.597Z,10.15
2019-05-16T04:34:55.613Z,8.93
2019-05-16T04:37:26.385Z,14.05
2019-05-16T04:39:56.677Z,10.13
2019-05-16T04:42:26.586Z,14.83
2019-05-16T04:44:56.506Z,10.70
2019-05-16T04:47:26.341Z,11.00
2019-05-16T04:49:56.229Z,10.58
2019-05-16T04:52:26.247Z,9.68
2019-05-16T04:54:56.162Z,11.18
2019-05-16T04:57:26.075Z,8.80
2019-05-16T04:59:56.096Z,13.85
2019-05-16T05:02:26.110Z,9.58
2019-05-16T05:04:56.026Z,8.78
2019-05-16T05:07:25.940Z,8.95
2019-05-16T05:09:55.857Z,17.82
2019-05-16T05:12:25.778Z,7.92
2019-05-16T05:14:55.689Z,8.33
2019-05-16T05:17:25.721Z,8.15
2019-05-16T05:19:57.255Z,12.85
2019-05-16T05:22:27.169Z,7.95
2019-05-16T05:24:57.433Z,10.93
2019-05-16T05:27:27.585Z,8.18
2019-05-16T05:29:57.530Z,9.75
2019-05-16T05:32:27.444Z,12.20
2019-05-16T05:34:59.668Z,13.88
2019-05-16T05:37:29.872Z,11.18
2019-05-16T05:40:01.079Z,8.38
2019-05-16T05:42:33.247Z,9.73
2019-05-16T05:45:05.389Z,9.43
2019-05-16T05:47:35.435Z,11.65
2019-05-16T05:50:06.633Z,9.85
2019-05-16T05:52:36.678Z,9.10
2019-05-16T05:55:06.802Z,10.95
2019-05-16T05:57:56.185Z,11.40
2019-05-16T06:00:26.101Z,15.18
2019-05-16T06:02:56.428Z,12.25
2019-05-16T06:05:26.340Z,14.80
2019-05-16T06:07:56.255Z,15.18
2019-05-16T06:10:26.272Z,14.23
2019-05-16T06:12:56.391Z,15.95
2019-05-16T06:15:26.290Z,13.78
2019-05-16T06:17:56.323Z,13.88
2019-05-16T06:20:26.242Z,11.03
2019-05-16T06:22:56.153Z,16.75
2019-05-16T06:25:26.172Z,22.50
2019-05-16T06:27:56.086Z,14.98
2019-05-16T06:30:25.936Z,14.15
2019-05-16T06:32:55.915Z,13.90
2019-05-16T06:35:25.932Z,17.25
2019-05-16T06:37:56.051Z,13.40
2019-05-16T06:40:25.954Z,19.60
2019-05-16T06:42:56.291Z,19.85
2019-05-16T06:45:26.207Z,17.42
2019-05-16T06:47:56.123Z,18.15
2019-05-16T06:50:26.035Z,18.45
2019-05-16T06:52:55.954Z,17.20
2019-05-16T06:55:25.867Z,18.40
2019-05-16T06:57:57.367Z,15.75
2019-05-16T07:00:29.918Z,19.73
2019-05-16T07:03:20.549Z,20.48
2019-05-16T07:05:50.640Z,21.55
2019-05-16T07:08:21.655Z,21.10
2019-05-16T07:10:51.575Z,17.95
2019-05-16T07:13:21.483Z,26.82
2019-05-16T07:15:51.399Z,21.35
2019-05-16T07:18:21.479Z,18.67
2019-05-16T07:20:51.946Z,19.23
2019-05-16T07:23:22.270Z,21.10
2019-05-16T07:25:52.186Z,19.42
2019-05-16T07:28:22.203Z,19.87
2019-05-16T07:30:52.219Z,21.93
2019-05-16T07:33:22.135Z,20.52
2019-05-16T07:35:52.151Z,18.35
2019-05-16T07:38:22.305Z,16.12
2019-05-16T07:40:52.186Z,17.40
2019-05-16T07:43:24.987Z,18.90
2019-05-16T07:45:54.780Z,16.52
2019-05-16T07:48:24.679Z,16.45
2019-05-16T07:50:54.613Z,14.87
2019-05-16T07:53:24.524Z,16.17
2019-05-16T07:55:54.440Z,17.73
2019-05-16T07:58:24.354Z,18.15
2019-05-16T08:01:02.838Z,15.00
2019-05-16T08:03:25.926Z,17.50
2019-05-16T08:05:55.842Z,21.77
2019-05-16T08:08:25.754Z,13.28
2019-05-16T08:10:55.680Z,15.00
2019-05-16T08:13:25.690Z,13.65
2019-05-16T08:15:55.626Z,10.18
2019-05-16T08:18:25.516Z,10.50
2019-05-16T08:20:55.539Z,9.18
2019-05-16T08:23:25.437Z,15.98
2019-05-16T08:25:55.773Z,7.85
2019-05-16T08:28:25.695Z,6.17
2019-05-16T08:30:55.706Z,4.22
2019-05-16T08:33:25.625Z,4.12
2019-05-16T08:35:56.654Z,5.72
2019-05-16T08:38:26.577Z,4.08
2019-05-16T08:41:07.974Z,5.90
2019-05-16T08:43:31.549Z,6.25
2019-05-16T08:46:01.855Z,4.37
2019-05-16T08:48:32.792Z,4.17
2019-05-16T08:51:03.109Z,4.58
2019-05-16T08:53:34.053Z,6.67
2019-05-16T08:56:04.173Z,5.08
2019-05-16T08:58:34.087Z,4.85
2019-05-16T09:01:04.007Z,4.92
2019-05-16T09:03:33.917Z,6.92
2019-05-16T09:06:04.856Z,6.90
2019-05-16T09:08:34.821Z,7.30
2019-05-16T09:11:27.027Z,5.05
2019-05-16T09:13:37.075Z,6.40
2019-05-16T09:16:07.896Z,4.37
2019-05-16T09:18:40.968Z,6.72
2019-05-16T09:21:09.568Z,7.42
2019-05-16T09:23:39.489Z,6.10
2019-05-16T09:26:09.704Z,4.20
2019-05-16T09:28:52.330Z,4.30
2019-05-16T09:31:22.230Z,5.75
2019-05-16T09:33:52.148Z,7.00
2019-05-16T09:36:22.062Z,5.12
2019-05-16T09:38:51.975Z,3.55
2019-05-16T09:41:21.909Z,3.92
2019-05-16T09:43:51.909Z,4.17
2019-05-16T09:46:21.822Z,4.28
2019-05-16T09:49:11.602Z,5.10
2019-05-16T09:51:23.291Z,3.80
2019-05-16T09:53:53.106Z,3.15
2019-05-16T09:56:23.121Z,4.30
2019-05-16T09:58:53.021Z,6.58
2019-05-16T10:01:23.052Z,5.47
2019-05-16T10:03:53.069Z,4.00
2019-05-16T10:06:23.192Z,8.65
2019-05-16T10:08:53.411Z,6.08
2019-05-16T10:11:23.330Z,7.70
2019-05-16T10:13:53.241Z,9.45
2019-05-16T10:16:23.150Z,4.85
2019-05-16T10:18:53.172Z,6.03
2019-05-16T10:21:23.003Z,5.20
2019-05-16T10:23:53.308Z,5.00
2019-05-16T10:26:23.639Z,6.53
2019-05-16T10:28:53.657Z,5.80
2019-05-16T10:31:37.719Z,6.28
2019-05-16T10:33:57.694Z,5.17
2019-05-16T10:36:28.151Z,4.60
2019-05-16T10:38:59.021Z,6.78
2019-05-16T10:41:29.778Z,5.05
2019-05-16T10:43:59.795Z,6.50
2019-05-16T10:46:29.710Z,9.13
2019-05-16T10:48:59.626Z,5.47
2019-05-16T10:51:29.586Z,7.08
2019-05-16T10:54:09.018Z,6.42
2019-05-16T10:56:31.110Z,6.10
2019-05-16T10:59:38.375Z,5.53
2019-05-16T11:01:32.579Z,5.45
2019-05-16T11:04:03.516Z,8.05
2019-05-16T11:06:33.439Z,5.75
2019-05-16T11:09:06.391Z,5.33
2019-05-16T11:11:36.845Z,4.00
2019-05-16T11:14:09.117Z,5.92
2019-05-16T11:16:38.417Z,4.50
2019-05-16T11:19:17.215Z,6.62
2019-05-16T11:21:39.986Z,5.90
2019-05-16T11:24:12.581Z,9.63
2019-05-16T11:26:41.464Z,5.95
2019-05-16T11:29:11.369Z,6.40
2019-05-16T11:31:41.284Z,7.15
2019-05-16T11:34:11.118Z,7.58
2019-05-16T11:36:41.116Z,6.60
2019-05-16T11:39:11.167Z,7.72
2019-05-16T11:41:41.454Z,7.67
2019-05-16T11:44:11.369Z,8.40
2019-05-16T11:46:41.285Z,7.50
2019-05-16T11:49:11.129Z,7.90
2019-05-16T11:51:40.998Z,6.60
2019-05-16T11:54:10.928Z,4.83
2019-05-16T11:56:40.842Z,7.85
2019-05-16T11:59:10.756Z,7.92
2019-05-16T12:01:40.677Z,6.42
2019-05-16T12:04:10.587Z,7.20
2019-05-16T12:06:40.809Z,8.98
2019-05-16T12:09:10.706Z,8.78
2019-05-16T12:11:40.740Z,6.92
2019-05-16T12:14:10.655Z,5.92
2019-05-16T12:16:41.492Z,5.28
2019-05-16T12:19:11.407Z,8.85
2019-05-16T12:21:41.630Z,6.85
2019-05-16T12:24:11.652Z,6.00
2019-05-16T12:26:41.667Z,7.78
2019-05-16T12:29:11.561Z,5.60
2019-05-16T12:31:54.265Z,7.58
2019-05-16T12:34:13.046Z,7.03
2019-05-16T12:36:42.962Z,8.75
2019-05-16T12:39:13.286Z,7.58
2019-05-16T12:41:43.202Z,6.37
2019-05-16T12:44:13.121Z,7.10
2019-05-16T12:46:43.030Z,7.83
2019-05-16T12:49:12.947Z,6.25
2019-05-16T12:51:42.848Z,6.45
2019-05-16T12:54:13.184Z,6.55
2019-05-16T12:56:43.205Z,6.12
2019-05-16T12:59:20.401Z,5.60
2019-05-16T13:01:44.670Z,8.10
2019-05-16T13:04:18.987Z,6.55
2019-05-16T13:06:47.176Z,5.90
2019-05-16T13:09:18.530Z,8.88
2019-05-16T13:11:49.038Z,5.47
2019-05-16T13:14:19.057Z,5.35
2019-05-16T13:16:48.970Z,6.58
2019-05-16T13:19:18.886Z,5.58
2019-05-16T13:21:49.209Z,6.05
2019-05-16T13:24:19.136Z,5.12
2019-05-16T13:26:50.192Z,4.85
2019-05-16T13:29:20.082Z,4.35
2019-05-16T13:31:51.006Z,7.75
2019-05-16T13:34:20.934Z,5.87
2019-05-16T13:36:50.853Z,8.05
2019-05-16T13:39:20.767Z,4.72
2019-05-16T13:41:50.787Z,6.55
2019-05-16T13:44:23.095Z,6.37
2019-05-16T13:46:52.352Z,5.80
2019-05-16T13:49:22.267Z,5.30
2019-05-16T13:51:52.285Z,3.55
2019-05-16T13:54:22.183Z,3.60
2019-05-16T13:56:52.216Z,7.08
2019-05-16T13:59:22.130Z,5.10
2019-05-16T14:01:52.354Z,7.15
2019-05-16T14:04:22.174Z,3.90
2019-05-16T14:06:55.482Z,5.47
2019-05-16T14:09:23.529Z,3.85
2019-05-16T14:11:53.447Z,4.10
2019-05-16T14:14:34.757Z,5.22
2019-05-16T14:16:55.016Z,7.55
2019-05-16T14:19:27.319Z,3.87
2019-05-16T14:21:57.507Z,2.85
2019-05-16T14:24:28.129Z,4.03
2019-05-16T14:26:59.387Z,4.93
2019-05-16T14:29:29.302Z,5.95
2019-05-16T14:31:59.201Z,7.45
2019-05-16T14:34:29.540Z,3.50
2019-05-16T14:36:59.437Z,5.58
2019-05-16T14:39:29.472Z,5.37
2019-05-16T14:41:59.388Z,4.17
2019-05-16T14:44:30.532Z,6.28
2019-05-16T14:47:00.445Z,3.80
2019-05-16T14:49:30.469Z,5.37
2019-05-16T14:52:00.889Z,6.22
2019-05-16T14:54:30.804Z,6.35
2019-05-16T14:57:01.561Z,4.10
2019-05-16T14:59:31.965Z,4.00
2019-05-16T15:02:01.989Z,4.12
2019-05-16T15:04:31.897Z,4.95
2019-05-16T15:07:01.812Z,4.70
2019-05-16T15:09:31.727Z,6.78
2019-05-16T15:12:01.573Z,5.20
2019-05-16T15:14:31.456Z,6.92
2019-05-16T15:17:01.369Z,3.77
2019-05-16T15:19:31.390Z,5.03
2019-05-16T15:22:02.570Z,4.92
2019-05-16T15:24:33.059Z,5.05
2019-05-16T15:27:02.959Z,4.12
2019-05-16T15:29:32.888Z,3.35
2019-05-16T15:32:02.803Z,5.33
2019-05-16T15:34:34.587Z,4.25
2019-05-16T15:37:04.173Z,5.37
2019-05-16T15:39:37.135Z,2.25
2019-05-16T15:42:08.165Z,3.35
2019-05-16T15:44:37.087Z,4.10
2019-05-16T15:47:08.144Z,4.35
2019-05-16T15:49:38.464Z,3.80
2019-05-16T15:52:08.368Z,2.77
2019-05-16T15:54:38.286Z,3.52
2019-05-16T15:57:08.505Z,3.77
2019-05-16T15:59:38.523Z,3.65
2019-05-16T16:02:08.541Z,5.35
2019-05-16T16:04:41.219Z,4.30
2019-05-16T16:07:11.546Z,5.97
2019-05-16T16:09:41.443Z,3.02
2019-05-16T16:12:11.458Z,6.45
2019-05-16T16:14:41.806Z,3.33
2019-05-16T16:17:11.816Z,3.37
2019-05-16T16:19:41.731Z,7.87
2019-05-16T16:22:11.749Z,4.58
2019-05-16T16:24:41.664Z,3.60
2019-05-16T16:27:11.580Z,3.52
2019-05-16T16:29:41.414Z,6.92
2019-05-16T16:32:11.510Z,1.82
2019-05-16T16:34:41.428Z,5.17
2019-05-16T16:37:12.981Z,2.45
2019-05-16T16:39:42.997Z,4.20
2019-05-16T16:42:12.824Z,3.42
2019-05-16T16:44:42.723Z,3.25
2019-05-16T16:47:13.253Z,2.55
2019-05-16T16:49:43.174Z,2.25
2019-05-16T16:52:13.083Z,4.35
2019-05-16T16:54:42.997Z,4.58
2019-05-16T16:57:12.912Z,2.85
2019-05-16T16:59:42.829Z,5.75
2019-05-16T17:02:12.658Z,4.30
2019-05-16T17:04:42.965Z,3.80
2019-05-16T17:07:12.887Z,4.08
2019-05-16T17:09:44.231Z,3.20
2019-05-16T17:12:14.142Z,3.83
2019-05-16T17:14:46.329Z,4.95
2019-05-16T17:17:17.647Z,4.67
2019-05-16T17:19:47.503Z,3.80
2019-05-16T17:22:20.841Z,6.55
2019-05-16T17:24:49.143Z,6.97
2019-05-16T17:27:19.060Z,3.27
2019-05-16T17:29:49.385Z,3.47
2019-05-16T17:32:19.399Z,3.05
2019-05-16T17:34:49.417Z,5.37
2019-05-16T17:37:19.332Z,4.05
2019-05-16T17:39:49.349Z,4.45
2019-05-16T17:42:19.374Z,4.65
2019-05-16T17:44:49.998Z,3.25
2019-05-16T17:47:19.912Z,3.67
2019-05-16T17:49:49.929Z,2.87
2019-05-16T17:52:19.844Z,3.70
2019-05-16T17:54:49.759Z,5.33
2019-05-16T17:57:19.674Z,3.35
2019-05-16T17:59:49.590Z,6.58
2019-05-16T18:02:19.695Z,4.05
2019-05-16T18:04:50.545Z,4.12
2019-05-16T18:07:20.462Z,4.45
2019-05-16T18:09:50.465Z,4.25
2019-05-16T18:12:20.397Z,4.33
2019-05-16T18:14:50.562Z,8.63
2019-05-16T18:17:20.557Z,1.52
2019-05-16T18:19:50.444Z,2.42
2019-05-16T18:22:20.298Z,3.30
2019-05-16T18:24:52.905Z,5.03
2019-05-16T18:27:22.836Z,3.02
2019-05-16T18:29:52.765Z,2.62
2019-05-16T18:32:22.680Z,2.95
2019-05-16T18:34:53.006Z,2.40
2019-05-16T18:37:22.920Z,7.37
2019-05-16T18:39:52.834Z,6.20
2019-05-16T18:42:22.748Z,3.02
2019-05-16T18:44:52.670Z,6.97
2019-05-16T18:47:22.681Z,3.85
2019-05-16T18:49:52.584Z,4.50
2019-05-16T18:52:22.512Z,3.92
2019-05-16T18:55:11.881Z,5.80
2019-05-16T18:57:41.838Z,4.25
2019-05-16T19:00:11.733Z,3.47
2019-05-16T19:02:41.711Z,3.15
2019-05-16T19:05:11.645Z,6.87
2019-05-16T19:07:43.443Z,3.92
2019-05-16T19:10:13.419Z,4.08
2019-05-16T19:12:43.435Z,4.97
2019-05-16T19:15:13.350Z,5.15
2019-05-16T19:17:43.675Z,3.85
2019-05-16T19:20:13.590Z,4.15
2019-05-16T19:23:02.961Z,3.92
2019-05-16T19:25:32.875Z,4.40
2019-05-16T19:28:02.899Z,5.58
2019-05-16T19:30:33.933Z,8.23
2019-05-16T19:33:03.848Z,6.50
2019-05-16T19:35:34.275Z,6.60
2019-05-16T19:38:06.465Z,6.87
2019-05-16T19:40:37.548Z,6.83
2019-05-16T19:43:07.492Z,7.10
2019-05-16T19:45:37.928Z,6.25
2019-05-16T19:48:07.843Z,5.53
2019-05-16T19:50:37.758Z,7.55
2019-05-16T19:53:07.978Z,5.42
2019-05-16T19:55:38.102Z,6.70
2019-05-16T19:58:08.122Z,6.17
2019-05-16T20:00:38.031Z,6.15
2019-05-16T20:03:08.046Z,5.28
2019-05-16T20:05:39.192Z,5.67
2019-05-16T20:08:12.009Z,4.95
2019-05-16T20:13:11.087Z,5.62
2019-05-16T20:15:41.707Z,5.00
2019-05-16T20:18:13.222Z,6.10
2019-05-16T20:20:44.109Z,5.90
2019-05-16T20:23:16.579Z,5.53
2019-05-16T20:25:47.032Z,5.70
2019-05-16T20:28:18.398Z,7.15
2019-05-16T20:30:48.686Z,6.28
2019-05-16T20:33:18.597Z,6.20
2019-05-16T20:35:49.025Z,7.40
2019-05-16T20:38:18.939Z,6.62
2019-05-16T20:40:48.771Z,4.67
2019-05-16T20:43:19.076Z,6.60
2019-05-16T20:45:49.093Z,5.67
2019-05-16T20:48:19.011Z,5.15
2019-05-16T20:50:49.182Z,5.35
2019-05-16T20:53:19.381Z,7.70
2019-05-16T20:55:49.774Z,5.40
2019-05-16T20:58:20.919Z,5.40
2019-05-16T21:00:50.839Z,5.10
2019-05-16T21:03:20.673Z,6.28
2019-05-16T21:05:50.518Z,5.60
2019-05-16T21:08:20.523Z,7.85
2019-05-16T21:10:50.494Z,5.08
2019-05-16T21:13:20.409Z,5.08
2019-05-16T21:15:50.325Z,5.92
2019-05-16T21:18:20.242Z,4.75
2019-05-16T21:20:50.061Z,6.47
2019-05-16T21:23:19.966Z,5.22
2019-05-16T21:25:50.597Z,4.20
2019-05-16T21:28:20.614Z,4.15
2019-05-16T21:30:50.530Z,3.90
2019-05-16T21:33:20.444Z,6.70
2019-05-16T21:35:50.359Z,4.65
2019-05-16T21:38:20.275Z,4.12
2019-05-16T21:40:50.188Z,8.08
2019-05-16T21:43:20.105Z,4.05
2019-05-16T21:45:50.018Z,6.95
2019-05-16T21:48:19.861Z,5.75
2019-05-16T21:50:49.745Z,4.92
2019-05-16T21:53:19.659Z,4.40
2019-05-16T21:55:49.576Z,4.40
2019-05-16T21:58:19.398Z,4.05
2019-05-16T22:00:51.350Z,4.67
2019-05-16T22:03:21.367Z,4.00
2019-05-16T22:05:51.487Z,4.10
2019-05-16T22:08:21.505Z,4.22
2019-05-16T22:10:51.419Z,3.50
2019-05-16T22:13:21.743Z,3.20
2019-05-16T22:15:51.658Z,3.22
2019-05-16T22:18:21.881Z,3.37
2019-05-16T22:20:56.984Z,3.10
2019-05-16T22:23:27.650Z,5.28
2019-05-16T22:25:57.564Z,2.67
2019-05-16T22:28:30.011Z,3.12
2019-05-16T22:30:58.943Z,4.35
2019-05-16T22:33:28.847Z,2.87
2019-05-16T22:35:58.862Z,2.83
2019-05-16T22:38:30.212Z,2.40
2019-05-16T22:41:00.227Z,3.25
2019-05-16T22:43:30.347Z,3.12
2019-05-16T22:46:00.262Z,3.62
2019-05-16T22:48:31.303Z,6.28
2019-05-16T22:51:01.135Z,3.27
2019-05-16T22:53:31.031Z,3.08
2019-05-16T22:56:00.947Z,2.58
2019-05-16T22:58:30.859Z,3.45
2019-05-16T23:01:00.878Z,3.40
2019-05-16T23:03:30.711Z,3.72
2019-05-16T23:06:00.607Z,3.75
2019-05-16T23:08:30.520Z,1.80
2019-05-16T23:11:00.434Z,2.10
2019-05-16T23:13:30.349Z,3.40
2019-05-16T23:16:00.263Z,2.20
2019-05-16T23:18:30.178Z,2.70
2019-05-16T23:21:00.094Z,5.58
2019-05-16T23:23:30.007Z,2.50
2019-05-16T23:25:59.923Z,2.15
2019-05-16T23:28:30.964Z,1.70
2019-05-16T23:31:00.881Z,2.10
2019-05-16T23:33:30.794Z,3.20
2019-05-16T23:36:00.709Z,2.92
2019-05-16T23:38:30.624Z,2.75
2019-05-16T23:41:00.538Z,1.82
2019-05-16T23:43:30.452Z,3.98
2019-05-16T23:46:00.674Z,6.37
2019-05-16T23:48:30.589Z,2.20
2019-05-16T23:51:00.505Z,3.47
2019-05-16T23:53:30.422Z,2.20
2019-05-16T23:56:00.261Z,2.65
2019-05-16T23:58:30.249Z,2.12
